Time;durP1;ratioP1;P1;durP2;ratioP2;P2;SDS_P1;SDS_P2;PMS_P1;PMS_P2;Temp;Humidity;BMP_temperature;BMP_pressure;BME280_temperature;BME280_humidity;BME280_pressure;Samples;Min_cycle;Max_cycle;Signal;HPM_P1;HPM_P2
2020/12/16 00:01:57;;;;;;;34.77;21.73;;;;;;;;;;4977855;28;20200;-79
2020/12/16 00:04:23;;;;;;;31.03;21.27;;;;;;;;;;4979248;28;20184;-78
2020/12/16 00:06:50;;;;;;;34.60;22.47;;;;;;;;;;4979307;28;20178;-78
2020/12/16 00:09:15;;;;;;;34.87;22.30;;;;;;;;;;4978960;28;20717;-79
2020/12/16 00:11:42;;;;;;;33.70;21.27;;;;;;;;;;4978562;28;20192;-78
2020/12/16 00:14:08;;;;;;;35.20;22.07;;;;;;;;;;4978994;28;20180;-79
2020/12/16 00:16:35;;;;;;;32.27;21.07;;;;;;;;;;4978928;28;20187;-78
2020/12/16 00:19:01;;;;;;;37.33;22.83;;;;;;;;;;4960373;28;20210;-79
2020/12/16 00:21:27;;;;;;;38.17;24.03;;;;;;;;;;4961631;28;20661;-79
2020/12/16 00:23:53;;;;;;;30.30;20.57;;;;;;;;;;4976237;28;20209;-77
2020/12/16 00:26:19;;;;;;;32.03;21.27;;;;;;;;;;4979021;28;20680;-78
2020/12/16 00:28:46;;;;;;;34.73;22.40;;;;;;;;;;4978227;28;20243;-78
2020/12/16 00:31:13;;;;;;;35.27;21.50;;;;;;;;;;4978381;28;20235;-78
2020/12/16 00:33:39;;;;;;;30.00;20.10;;;;;;;;;;4977941;28;20182;-78
2020/12/16 00:36:05;;;;;;;29.83;20.03;;;;;;;;;;4977817;28;20188;-79
2020/12/16 00:38:32;;;;;;;30.43;20.63;;;;;;;;;;4978085;28;20627;-79
2020/12/16 00:40:58;;;;;;;30.23;20.80;;;;;;;;;;4977615;28;20173;-78
2020/12/16 00:43:24;;;;;;;34.50;21.23;;;;;;;;;;4977693;28;20235;-78
2020/12/16 00:45:50;;;;;;;32.87;21.23;;;;;;;;;;4969140;28;20189;-79
2020/12/16 00:48:16;;;;;;;32.20;21.10;;;;;;;;;;4969974;28;20193;-79
2020/12/16 00:50:43;;;;;;;34.73;21.53;;;;;;;;;;4958141;28;20185;-78
2020/12/16 00:53:09;;;;;;;35.23;21.43;;;;;;;;;;4975646;28;20183;-78
2020/12/16 00:55:35;;;;;;;34.87;21.70;;;;;;;;;;4977216;28;20674;-78
2020/12/16 00:58:02;;;;;;;31.20;19.90;;;;;;;;;;4977334;28;20200;-77
2020/12/16 01:00:28;;;;;;;33.20;20.17;;;;;;;;;;4950443;28;20223;-78
2020/12/16 01:02:55;;;;;;;31.47;20.60;;;;;;;;;;4977327;28;20633;-78
2020/12/16 01:05:21;;;;;;;31.93;20.33;;;;;;;;;;4971550;28;20224;-79
2020/12/16 01:07:48;;;;;;;28.20;20.30;;;;;;;;;;4967183;28;20539;-79
2020/12/16 01:10:15;;;;;;;25.07;18.50;;;;;;;;;;4975606;28;20184;-77
2020/12/16 01:12:42;;;;;;;31.43;20.23;;;;;;;;;;4976709;28;20195;-78
2020/12/16 01:15:09;;;;;;;29.60;18.90;;;;;;;;;;4975201;28;20208;-79
2020/12/16 01:17:40;;;;;;;29.80;19.97;;;;;;;;;;4976437;28;20259;-78
2020/12/16 01:20:06;;;;;;;34.53;20.33;;;;;;;;;;4976608;28;20204;-78
2020/12/16 01:22:32;;;;;;;31.43;20.87;;;;;;;;;;4957386;28;20205;-79
2020/12/16 01:24:59;;;;;;;32.37;20.43;;;;;;;;;;4968577;28;20201;-78
2020/12/16 01:27:25;;;;;;;30.07;20.53;;;;;;;;;;4976317;28;20548;-77
2020/12/16 01:29:51;;;;;;;29.37;20.63;;;;;;;;;;4976777;28;20216;-78
2020/12/16 01:32:18;;;;;;;35.40;20.90;;;;;;;;;;4974459;28;20177;-78
2020/12/16 01:34:43;;;;;;;30.73;20.83;;;;;;;;;;4956625;28;20578;-78
2020/12/16 01:37:10;;;;;;;33.50;21.70;;;;;;;;;;4970126;28;20204;-77
2020/12/16 01:39:36;;;;;;;30.10;20.37;;;;;;;;;;4975830;28;20568;-78
2020/12/16 01:42:03;;;;;;;31.93;21.20;;;;;;;;;;4963446;28;20177;-78
2020/12/16 01:44:30;;;;;;;30.43;20.27;;;;;;;;;;4973715;28;20252;-78
2020/12/16 01:46:57;;;;;;;27.93;19.87;;;;;;;;;;4967071;28;20176;-77
2020/12/16 01:49:24;;;;;;;25.23;18.77;;;;;;;;;;4975138;28;20208;-77
2020/12/16 01:51:51;;;;;;;29.33;19.47;;;;;;;;;;4975381;28;20184;-77
2020/12/16 01:54:19;;;;;;;28.87;19.97;;;;;;;;;;4974495;28;20612;-77
2020/12/16 01:56:46;;;;;;;23.37;16.33;;;;;;;;;;4963169;28;20654;-77
2020/12/16 01:59:13;;;;;;;27.30;18.03;;;;;;;;;;4973921;28;20208;-77
2020/12/16 02:01:41;;;;;;;25.97;17.90;;;;;;;;;;4975232;28;20177;-77
2020/12/16 02:04:09;;;;;;;28.50;17.93;;;;;;;;;;4964511;28;20595;-77
2020/12/16 02:06:36;;;;;;;22.13;16.30;;;;;;;;;;4956638;28;20581;-77
2020/12/16 02:09:06;;;;;;;27.23;17.97;;;;;;;;;;4975389;28;20656;-77
2020/12/16 02:11:33;;;;;;;25.50;17.70;;;;;;;;;;4975411;28;20739;-77
2020/12/16 02:14:00;;;;;;;25.10;17.40;;;;;;;;;;4962185;28;20203;-77
2020/12/16 02:16:26;;;;;;;28.93;19.07;;;;;;;;;;4974170;28;20188;-77
2020/12/16 02:18:52;;;;;;;25.00;17.80;;;;;;;;;;4975351;28;20267;-79
2020/12/16 02:21:19;;;;;;;24.50;17.23;;;;;;;;;;4965820;28;20252;-78
2020/12/16 02:23:47;;;;;;;25.57;17.60;;;;;;;;;;4955749;28;20185;-77
2020/12/16 02:26:14;;;;;;;24.47;17.33;;;;;;;;;;4963705;28;20176;-77
2020/12/16 02:28:40;;;;;;;25.73;17.00;;;;;;;;;;4974737;28;20223;-77
2020/12/16 02:31:07;;;;;;;25.87;18.13;;;;;;;;;;4969439;28;20177;-77
2020/12/16 02:33:34;;;;;;;22.90;17.57;;;;;;;;;;4968313;28;20188;-77
2020/12/16 02:36:01;;;;;;;21.90;16.43;;;;;;;;;;4962208;28;20168;-78
2020/12/16 02:38:27;;;;;;;19.90;15.67;;;;;;;;;;4974876;28;20597;-77
2020/12/16 02:40:53;;;;;;;21.10;15.97;;;;;;;;;;4975005;28;20672;-77
2020/12/16 02:43:19;;;;;;;22.20;17.40;;;;;;;;;;4975370;28;20263;-77
2020/12/16 02:45:46;;;;;;;23.83;17.20;;;;;;;;;;4969443;28;20536;-78
2020/12/16 02:48:13;;;;;;;24.20;17.13;;;;;;;;;;4959339;28;20212;-77
2020/12/16 02:50:40;;;;;;;30.67;17.87;;;;;;;;;;4971953;28;20216;-77
2020/12/16 02:53:06;;;;;;;24.57;17.43;;;;;;;;;;4978964;28;20259;-77
2020/12/16 02:55:33;;;;;;;23.97;17.27;;;;;;;;;;4979253;28;20196;-78
2020/12/16 02:57:59;;;;;;;23.10;17.23;;;;;;;;;;4978651;28;20210;-77
2020/12/16 03:00:26;;;;;;;27.47;17.93;;;;;;;;;;4953495;28;20212;-77
2020/12/16 03:02:52;;;;;;;24.30;17.50;;;;;;;;;;4957558;28;20190;-77
2020/12/16 03:05:19;;;;;;;22.23;17.03;;;;;;;;;;4960823;28;20205;-77
2020/12/16 03:07:45;;;;;;;24.57;16.93;;;;;;;;;;4976613;28;20192;-77
2020/12/16 03:10:12;;;;;;;20.97;15.37;;;;;;;;;;4977994;28;20181;-77
2020/12/16 03:12:38;;;;;;;20.40;15.77;;;;;;;;;;4978482;28;20554;-77
2020/12/16 03:15:05;;;;;;;20.93;15.47;;;;;;;;;;4977091;28;20659;-77
2020/12/16 03:17:31;;;;;;;23.73;16.80;;;;;;;;;;4978251;28;20181;-78
2020/12/16 03:19:57;;;;;;;24.77;16.10;;;;;;;;;;4978044;28;20200;-78
2020/12/16 03:22:24;;;;;;;25.10;16.80;;;;;;;;;;4978531;28;20191;-77
2020/12/16 03:24:50;;;;;;;25.03;16.00;;;;;;;;;;4976535;28;20184;-77
2020/12/16 03:27:16;;;;;;;18.33;14.87;;;;;;;;;;4977765;28;20192;-77
2020/12/16 03:29:42;;;;;;;22.40;16.13;;;;;;;;;;4978333;28;20204;-77
2020/12/16 03:32:08;;;;;;;20.23;15.13;;;;;;;;;;4975923;28;20659;-77
2020/12/16 03:34:34;;;;;;;18.60;14.80;;;;;;;;;;4958917;28;20189;-77
2020/12/16 03:37:00;;;;;;;20.83;14.57;;;;;;;;;;4969651;28;20180;-77
2020/12/16 03:39:27;;;;;;;19.50;14.67;;;;;;;;;;4984930;28;20204;-78
2020/12/16 03:41:53;;;;;;;19.67;14.87;;;;;;;;;;4984925;28;20185;-78
2020/12/16 03:44:19;;;;;;;18.90;15.03;;;;;;;;;;4981203;28;20212;-79
2020/12/16 03:46:50;;;;;;;21.03;15.60;;;;;;;;;;4971702;28;20651;-79
2020/12/16 03:49:16;;;;;;;22.97;15.80;;;;;;;;;;4965978;28;20204;-79
2020/12/16 03:51:42;;;;;;;22.10;15.27;;;;;;;;;;4978465;28;20192;-79
2020/12/16 03:54:09;;;;;;;19.80;14.47;;;;;;;;;;4979900;28;20195;-79
2020/12/16 03:56:35;;;;;;;22.30;16.40;;;;;;;;;;4972709;28;20247;-78
2020/12/16 03:59:01;;;;;;;20.40;14.47;;;;;;;;;;4966521;28;20205;-78
2020/12/16 04:01:27;;;;;;;19.93;15.03;;;;;;;;;;4978981;28;20185;-78
2020/12/16 04:03:54;;;;;;;23.97;16.83;;;;;;;;;;4981236;28;20645;-79
2020/12/16 04:06:20;;;;;;;20.17;14.27;;;;;;;;;;4979163;28;20544;-78
2020/12/16 04:08:46;;;;;;;19.50;14.43;;;;;;;;;;4959644;28;20573;-78
2020/12/16 04:11:14;;;;;;;19.50;14.10;;;;;;;;;;4968805;28;20323;-78
2020/12/16 04:13:40;;;;;;;19.27;14.00;;;;;;;;;;4977451;28;20234;-78
2020/12/16 04:16:08;;;;;;;21.10;14.40;;;;;;;;;;4977770;28;20181;-79
2020/12/16 04:18:35;;;;;;;19.63;14.33;;;;;;;;;;4965610;28;20215;-77
2020/12/16 04:21:01;;;;;;;18.93;14.70;;;;;;;;;;4976531;28;20610;-78
2020/12/16 04:23:27;;;;;;;18.37;13.77;;;;;;;;;;4977417;28;20181;-78
2020/12/16 04:25:53;;;;;;;15.07;12.00;;;;;;;;;;4978030;28;20168;-78
2020/12/16 04:28:20;;;;;;;14.03;12.10;;;;;;;;;;4977574;28;20204;-79
2020/12/16 04:30:46;;;;;;;16.50;13.00;;;;;;;;;;4977594;28;20264;-78
2020/12/16 04:33:12;;;;;;;14.93;12.43;;;;;;;;;;4976991;28;20688;-78
2020/12/16 04:35:39;;;;;;;15.23;12.73;;;;;;;;;;4962696;28;20205;-78
2020/12/16 04:38:05;;;;;;;13.87;12.33;;;;;;;;;;4965926;28;20213;-78
2020/12/16 04:40:32;;;;;;;14.93;13.20;;;;;;;;;;4977740;28;20551;-79
2020/12/16 04:43:03;;;;;;;15.80;13.17;;;;;;;;;;4977838;28;20177;-78
2020/12/16 04:45:29;;;;;;;17.40;13.50;;;;;;;;;;4970603;28;20173;-79
2020/12/16 04:47:56;;;;;;;18.07;13.20;;;;;;;;;;4976073;28;20204;-79
2020/12/16 04:50:22;;;;;;;17.63;12.90;;;;;;;;;;4977399;28;20677;-77
2020/12/16 04:52:49;;;;;;;16.00;12.40;;;;;;;;;;4977402;28;20188;-79
2020/12/16 04:55:19;;;;;;;17.50;13.27;;;;;;;;;;4977694;28;20716;-78
2020/12/16 04:57:50;;;;;;;15.10;12.67;;;;;;;;;;4977275;28;20184;-79
2020/12/16 05:00:16;;;;;;;15.63;12.70;;;;;;;;;;4974781;28;20313;-79
2020/12/16 05:02:49;;;;;;;16.13;12.47;;;;;;;;;;4956080;28;20281;-78
2020/12/16 05:05:15;;;;;;;13.43;11.93;;;;;;;;;;4957146;28;20177;-79
2020/12/16 05:07:41;;;;;;;15.50;12.60;;;;;;;;;;4955665;28;20192;-80
2020/12/16 05:10:08;;;;;;;14.33;12.20;;;;;;;;;;4956578;28;20185;-78
2020/12/16 05:12:35;;;;;;;16.10;12.87;;;;;;;;;;4964836;28;20180;-78
2020/12/16 05:15:02;;;;;;;12.87;10.67;;;;;;;;;;4976091;28;20552;-78
2020/12/16 05:17:28;;;;;;;13.40;11.27;;;;;;;;;;4977300;28;20177;-78
2020/12/16 05:19:55;;;;;;;15.97;12.27;;;;;;;;;;4976905;28;20291;-78
2020/12/16 05:22:22;;;;;;;14.90;12.13;;;;;;;;;;4976980;28;20180;-78
2020/12/16 05:24:53;;;;;;;18.37;13.30;;;;;;;;;;4977086;28;20192;-78
2020/12/16 05:27:20;;;;;;;17.30;13.57;;;;;;;;;;4976851;28;20192;-78
2020/12/16 05:29:50;;;;;;;22.13;14.47;;;;;;;;;;4977005;28;20208;-78
2020/12/16 05:32:17;;;;;;;25.73;15.60;;;;;;;;;;4975307;28;20195;-78
2020/12/16 05:34:43;;;;;;;25.60;15.47;;;;;;;;;;4977150;28;20189;-80
2020/12/16 05:37:23;;;;;;;27.13;17.03;;;;;;;;;;4976428;28;20188;-78
2020/12/16 05:40:04;;;;;;;25.27;16.10;;;;;;;;;;4976746;28;20660;-79
2020/12/16 05:42:30;;;;;;;25.07;16.80;;;;;;;;;;4978171;28;20184;-78
2020/12/16 05:44:58;;;;;;;28.73;17.83;;;;;;;;;;4974133;28;20198;-78
2020/12/16 05:47:25;;;;;;;17.40;13.83;;;;;;;;;;4971152;28;20183;-78
2020/12/16 05:49:51;;;;;;;31.40;20.37;;;;;;;;;;4976625;28;20291;-78
2020/12/16 05:52:18;;;;;;;22.60;15.53;;;;;;;;;;4976932;28;20228;-78
2020/12/16 05:54:47;;;;;;;21.60;14.30;;;;;;;;;;4976726;28;20192;-79
2020/12/16 05:57:19;;;;;;;38.40;22.27;;;;;;;;;;4976955;28;20216;-79
2020/12/16 06:00:04;;;;;;;34.77;21.90;;;;;;;;;;4975977;28;20210;-78
2020/12/16 06:02:35;;;;;;;24.50;16.27;;;;;;;;;;4976383;28;20187;-78
2020/12/16 06:05:01;;;;;;;18.40;14.13;;;;;;;;;;4960136;28;20237;-78
2020/12/16 06:07:28;;;;;;;27.00;17.67;;;;;;;;;;4968431;28;20676;-78
2020/12/16 06:09:56;;;;;;;17.63;14.17;;;;;;;;;;4975315;28;20209;-79
2020/12/16 06:12:25;;;;;;;16.60;13.23;;;;;;;;;;4977536;28;20244;-80
2020/12/16 06:15:02;;;;;;;13.63;11.97;;;;;;;;;;4963420;28;20270;-79
2020/12/16 06:17:29;;;;;;;14.87;12.47;;;;;;;;;;4957914;28;20185;-79
2020/12/16 06:19:55;;;;;;;18.40;13.20;;;;;;;;;;4972695;28;20204;-79
2020/12/16 06:22:23;;;;;;;16.47;12.40;;;;;;;;;;4965328;28;20184;-79
2020/12/16 06:24:50;;;;;;;16.90;12.80;;;;;;;;;;4962797;28;20180;-79
2020/12/16 06:27:21;;;;;;;16.73;12.97;;;;;;;;;;4965231;28;20208;-79
2020/12/16 06:29:49;;;;;;;17.67;12.70;;;;;;;;;;4981881;28;20686;-79
2020/12/16 06:32:25;;;;;;;16.73;12.80;;;;;;;;;;4979912;28;20199;-79
2020/12/16 06:34:52;;;;;;;19.43;13.40;;;;;;;;;;4961399;28;20193;-79
2020/12/16 06:37:19;;;;;;;18.87;12.73;;;;;;;;;;4976461;28;20692;-78
2020/12/16 06:39:45;;;;;;;19.47;14.07;;;;;;;;;;4973400;28;20212;-79
2020/12/16 06:42:11;;;;;;;20.17;14.30;;;;;;;;;;4962027;28;20177;-79
2020/12/16 06:44:37;;;;;;;27.23;17.23;;;;;;;;;;4961764;28;20192;-79
2020/12/16 06:47:04;;;;;;;27.17;16.67;;;;;;;;;;4961731;28;20191;-79
2020/12/16 06:49:34;;;;;;;22.43;14.67;;;;;;;;;;4961617;28;20209;-79
2020/12/16 06:52:08;;;;;;;20.73;14.43;;;;;;;;;;4961180;28;20261;-78
2020/12/16 06:54:41;;;;;;;19.00;13.80;;;;;;;;;;4961192;28;20185;-79
2020/12/16 06:57:14;;;;;;;18.27;13.43;;;;;;;;;;4961553;28;20195;-78
2020/12/16 06:59:43;;;;;;;21.10;14.70;;;;;;;;;;4961454;28;20206;-79
2020/12/16 07:02:10;;;;;;;18.83;14.43;;;;;;;;;;4948161;28;20185;-79
2020/12/16 07:04:37;;;;;;;19.00;13.27;;;;;;;;;;4961655;28;20699;-78
2020/12/16 07:07:03;;;;;;;21.67;14.87;;;;;;;;;;4979427;28;20177;-79
2020/12/16 07:09:34;;;;;;;20.87;14.17;;;;;;;;;;4970758;28;20201;-79
2020/12/16 07:12:00;;;;;;;20.13;13.40;;;;;;;;;;4959943;28;20181;-79
2020/12/16 07:14:33;;;;;;;20.60;13.50;;;;;;;;;;4961326;28;20244;-78
2020/12/16 07:17:06;;;;;;;18.97;13.13;;;;;;;;;;4961249;28;20169;-79
2020/12/16 07:19:33;;;;;;;18.93;13.77;;;;;;;;;;4961375;28;20220;-79
2020/12/16 07:22:15;;;;;;;21.87;15.33;;;;;;;;;;4961034;28;20665;-78
2020/12/16 07:24:46;;;;;;;19.63;14.23;;;;;;;;;;4961313;28;20166;-79
2020/12/16 07:27:14;;;;;;;22.20;14.67;;;;;;;;;;4960900;28;20173;-79
2020/12/16 07:29:52;;;;;;;19.77;14.23;;;;;;;;;;4968723;28;20541;-79
2020/12/16 07:32:20;;;;;;;20.60;14.27;;;;;;;;;;4980176;28;20195;-80
2020/12/16 07:34:48;;;;;;;21.17;13.80;;;;;;;;;;4980094;28;20211;-79
2020/12/16 07:37:15;;;;;;;16.00;13.07;;;;;;;;;;4980077;28;20188;-78
2020/12/16 07:39:45;;;;;;;18.60;12.70;;;;;;;;;;4971827;28;20211;-78
2020/12/16 07:42:11;;;;;;;15.67;11.90;;;;;;;;;;4960495;28;20273;-78
2020/12/16 07:44:43;;;;;;;19.37;12.73;;;;;;;;;;4979214;28;20189;-78
2020/12/16 07:47:09;;;;;;;19.80;13.67;;;;;;;;;;4972362;28;20185;-79
2020/12/16 07:49:38;;;;;;;17.30;13.00;;;;;;;;;;4978005;28;20299;-79
2020/12/16 07:52:04;;;;;;;19.47;13.23;;;;;;;;;;4979107;28;20601;-79
2020/12/16 07:54:31;;;;;;;17.83;13.30;;;;;;;;;;4962787;28;20192;-79
2020/12/16 07:56:57;;;;;;;18.40;13.53;;;;;;;;;;4968447;28;20187;-79
2020/12/16 07:59:27;;;;;;;25.53;16.33;;;;;;;;;;4979320;28;20299;-79
2020/12/16 08:01:53;;;;;;;21.53;15.63;;;;;;;;;;4979575;28;20177;-79
2020/12/16 08:04:19;;;;;;;19.73;15.13;;;;;;;;;;4969707;28;20220;-78
2020/12/16 08:06:45;;;;;;;22.87;15.60;;;;;;;;;;4960154;28;20186;-78
2020/12/16 08:09:20;;;;;;;25.27;17.07;;;;;;;;;;4960040;28;20228;-78
2020/12/16 08:11:46;;;;;;;28.00;17.63;;;;;;;;;;4973772;28;20643;-78
2020/12/16 08:14:13;;;;;;;27.73;17.43;;;;;;;;;;4971555;28;20180;-79
2020/12/16 08:16:41;;;;;;;29.00;17.90;;;;;;;;;;4959707;28;20180;-78
2020/12/16 08:19:07;;;;;;;38.50;18.67;;;;;;;;;;4959084;28;20224;-79
2020/12/16 08:21:33;;;;;;;39.00;21.23;;;;;;;;;;4970367;28;20192;-78
2020/12/16 08:24:00;;;;;;;38.50;19.53;;;;;;;;;;4975618;28;20187;-79
2020/12/16 08:26:26;;;;;;;53.97;26.97;;;;;;;;;;4959629;28;20269;-79
2020/12/16 08:28:52;;;;;;;45.77;22.47;;;;;;;;;;4974360;28;20202;-79
2020/12/16 08:31:19;;;;;;;40.50;20.33;;;;;;;;;;4969820;28;20269;-78
2020/12/16 08:33:47;;;;;;;45.37;21.70;;;;;;;;;;4959040;28;20569;-78
2020/12/16 08:36:21;;;;;;;46.73;22.37;;;;;;;;;;4978748;28;20180;-78
2020/12/16 08:38:49;;;;;;;54.63;24.33;;;;;;;;;;4979008;28;20615;-77
2020/12/16 08:41:23;;;;;;;60.73;26.33;;;;;;;;;;4957525;28;20173;-79
2020/12/16 08:43:49;;;;;;;49.70;24.03;;;;;;;;;;4959694;28;20174;-78
2020/12/16 08:46:17;;;;;;;58.33;25.73;;;;;;;;;;4962079;28;20184;-78
2020/12/16 08:48:46;;;;;;;52.63;23.73;;;;;;;;;;4967510;28;20201;-78
2020/12/16 08:51:15;;;;;;;48.67;23.03;;;;;;;;;;4958723;28;20177;-79
2020/12/16 08:53:53;;;;;;;50.50;24.80;;;;;;;;;;4958987;28;20208;-78
2020/12/16 08:56:23;;;;;;;48.20;24.13;;;;;;;;;;4959200;28;20591;-79
2020/12/16 08:59:03;;;;;;;43.67;20.87;;;;;;;;;;4959227;28;20292;-78
2020/12/16 09:01:29;;;;;;;32.77;18.23;;;;;;;;;;4973501;28;20643;-79
2020/12/16 09:03:55;;;;;;;37.97;19.33;;;;;;;;;;4972298;28;20553;-79
2020/12/16 09:06:21;;;;;;;37.20;20.07;;;;;;;;;;4957862;28;20674;-79
2020/12/16 09:08:48;;;;;;;35.23;18.93;;;;;;;;;;4957143;28;20220;-79
2020/12/16 09:11:16;;;;;;;34.97;18.33;;;;;;;;;;4969396;28;20177;-79
2020/12/16 09:13:43;;;;;;;33.77;18.47;;;;;;;;;;4974818;28;20188;-79
2020/12/16 09:16:09;;;;;;;31.30;17.70;;;;;;;;;;4959171;28;20700;-79
2020/12/16 09:18:38;;;;;;;36.53;18.60;;;;;;;;;;4973912;28;20279;-80
2020/12/16 09:21:06;;;;;;;33.07;18.47;;;;;;;;;;4977926;28;20211;-79
2020/12/16 09:23:32;;;;;;;25.07;16.37;;;;;;;;;;4978716;28;20180;-79
2020/12/16 09:25:58;;;;;;;30.17;17.60;;;;;;;;;;4977858;28;20173;-80
2020/12/16 09:28:34;;;;;;;28.63;16.77;;;;;;;;;;4966458;28;20205;-79
2020/12/16 09:31:20;;;;;;;23.77;17.40;;;;;;;;;;4962389;28;20271;-79
2020/12/16 09:33:57;;;;;;;28.83;17.33;;;;;;;;;;4977977;28;20715;-79
2020/12/16 09:36:24;;;;;;;31.57;18.87;;;;;;;;;;4977731;28;20669;-79
2020/12/16 09:38:54;;;;;;;29.97;17.93;;;;;;;;;;4977726;28;20209;-78
2020/12/16 09:41:20;;;;;;;35.07;21.17;;;;;;;;;;4977887;28;20545;-79
2020/12/16 09:43:47;;;;;;;35.97;20.20;;;;;;;;;;4965516;28;20260;-79
2020/12/16 09:46:23;;;;;;;33.53;19.77;;;;;;;;;;4948718;28;20186;-78
2020/12/16 09:48:51;;;;;;;31.93;19.77;;;;;;;;;;4947390;28;20237;-77
2020/12/16 09:51:21;;;;;;;37.27;20.53;;;;;;;;;;4952717;28;20180;-80
2020/12/16 09:53:47;;;;;;;39.17;22.73;;;;;;;;;;4955674;28;20189;-79
2020/12/16 09:56:26;;;;;;;40.27;23.03;;;;;;;;;;4959372;28;20179;-79
2020/12/16 09:58:53;;;;;;;36.33;21.97;;;;;;;;;;4965066;28;20621;-78
2020/12/16 10:01:19;;;;;;;38.00;22.87;;;;;;;;;;4953252;28;20190;-79
2020/12/16 10:03:48;;;;;;;36.23;22.80;;;;;;;;;;4966441;28;20185;-79
2020/12/16 10:06:15;;;;;;;51.03;26.40;;;;;;;;;;4958775;28;20189;-78
2020/12/16 10:08:41;;;;;;;64.47;40.77;;;;;;;;;;4954752;28;20888;-78
2020/12/16 10:11:14;;;;;;;153.80;104.53;;;;;;;;;;4954449;28;20181;-78
2020/12/16 10:13:40;;;;;;;46.10;29.47;;;;;;;;;;4958597;29;20193;-78
2020/12/16 10:16:08;;;;;;;49.17;31.30;;;;;;;;;;4957937;28;20645;-79
2020/12/16 10:18:34;;;;;;;61.33;39.27;;;;;;;;;;4955754;28;20267;-79
2020/12/16 10:21:00;;;;;;;58.30;28.97;;;;;;;;;;4955133;28;20578;-79
2020/12/16 10:23:26;;;;;;;61.20;31.30;;;;;;;;;;4958628;28;20687;-77
2020/12/16 10:25:52;;;;;;;92.70;42.23;;;;;;;;;;4955733;28;20274;-78
2020/12/16 10:28:21;;;;;;;69.87;33.50;;;;;;;;;;4954074;28;20206;-77
2020/12/16 10:30:48;;;;;;;69.80;32.80;;;;;;;;;;4951241;28;20206;-80
2020/12/16 10:33:14;;;;;;;57.30;31.87;;;;;;;;;;4956267;28;21302;-80
2020/12/16 10:35:41;;;;;;;58.43;32.40;;;;;;;;;;4946973;28;20191;-80
2020/12/16 10:38:07;;;;;;;50.33;29.30;;;;;;;;;;4963480;28;20236;-79
2020/12/16 10:40:34;;;;;;;49.53;26.60;;;;;;;;;;4951076;28;20269;-80
2020/12/16 10:43:00;;;;;;;51.73;28.10;;;;;;;;;;4960764;28;20188;-79
2020/12/16 10:45:27;;;;;;;70.00;35.57;;;;;;;;;;4958351;28;20696;-79
2020/12/16 10:47:57;;;;;;;74.77;33.93;;;;;;;;;;4957475;28;20205;-80
2020/12/16 10:50:30;;;;;;;70.57;36.00;;;;;;;;;;4957137;28;20683;-80
2020/12/16 10:52:57;;;;;;;75.07;35.67;;;;;;;;;;4960116;28;20186;-80
2020/12/16 10:55:23;;;;;;;100.50;39.87;;;;;;;;;;4954735;28;20197;-80
2020/12/16 10:57:49;;;;;;;77.70;35.13;;;;;;;;;;4956792;28;20273;-80
2020/12/16 11:00:15;;;;;;;77.43;36.60;;;;;;;;;;4954887;28;20247;-80
2020/12/16 11:02:41;;;;;;;91.73;39.87;;;;;;;;;;4962369;28;20182;-79
2020/12/16 11:05:07;;;;;;;99.57;44.53;;;;;;;;;;4954863;28;20188;-80
2020/12/16 11:07:33;;;;;;;78.77;36.53;;;;;;;;;;4955819;28;20253;-79
2020/12/16 11:09:59;;;;;;;148.33;54.87;;;;;;;;;;4947566;29;20666;-79
2020/12/16 11:12:26;;;;;;;83.20;38.53;;;;;;;;;;4957153;28;20199;-80
2020/12/16 11:14:52;;;;;;;53.00;29.50;;;;;;;;;;4952242;28;20233;-80
2020/12/16 11:17:19;;;;;;;58.33;28.53;;;;;;;;;;4963802;28;20185;-81
2020/12/16 11:19:45;;;;;;;71.93;32.37;;;;;;;;;;4960794;28;20287;-80
2020/12/16 11:22:12;;;;;;;66.37;32.23;;;;;;;;;;4951905;28;20228;-80
2020/12/16 11:24:38;;;;;;;59.33;29.30;;;;;;;;;;4956426;28;20194;-80
2020/12/16 11:27:04;;;;;;;60.83;30.90;;;;;;;;;;4946450;28;20230;-78
2020/12/16 11:29:31;;;;;;;76.13;36.93;;;;;;;;;;4959215;28;20562;-80
2020/12/16 11:31:59;;;;;;;71.17;34.57;;;;;;;;;;4946663;28;20182;-80
2020/12/16 11:34:26;;;;;;;164.33;60.83;;;;;;;;;;4960228;28;20181;-79
2020/12/16 11:36:53;;;;;;;94.13;39.53;;;;;;;;;;4955561;28;20189;-80
2020/12/16 11:39:20;;;;;;;76.50;39.60;;;;;;;;;;4952397;28;20219;-79
2020/12/16 11:41:48;;;;;;;116.80;54.90;;;;;;;;;;4951519;28;20193;-80
2020/12/16 11:44:15;;;;;;;119.77;51.57;;;;;;;;;;4949530;28;20559;-79
2020/12/16 11:46:41;;;;;;;101.17;48.20;;;;;;;;;;4960547;28;20653;-79
2020/12/16 11:49:07;;;;;;;75.83;36.63;;;;;;;;;;4957368;28;20206;-80
2020/12/16 11:51:33;;;;;;;123.07;48.00;;;;;;;;;;4960492;28;20575;-78
2020/12/16 11:53:59;;;;;;;242.70;98.07;;;;;;;;;;4960979;28;20185;-79
2020/12/16 11:56:25;;;;;;;252.13;107.27;;;;;;;;;;4962418;28;20531;-79
2020/12/16 11:58:52;;;;;;;63.00;35.17;;;;;;;;;;4962985;28;20264;-80
2020/12/16 12:01:19;;;;;;;48.03;29.37;;;;;;;;;;4951242;28;20191;-80
2020/12/16 12:03:45;;;;;;;45.17;29.17;;;;;;;;;;4957756;28;20190;-79
2020/12/16 12:06:12;;;;;;;46.07;28.57;;;;;;;;;;4952042;28;20650;-78
2020/12/16 12:08:38;;;;;;;53.57;30.87;;;;;;;;;;4950780;28;20342;-79
2020/12/16 12:11:05;;;;;;;52.10;30.60;;;;;;;;;;4953909;28;20657;-78
2020/12/16 12:13:31;;;;;;;47.20;28.10;;;;;;;;;;4960669;28;20224;-80
2020/12/16 12:15:57;;;;;;;44.50;28.27;;;;;;;;;;4952323;28;20284;-79
2020/12/16 12:18:23;;;;;;;44.67;26.53;;;;;;;;;;4952502;28;20209;-78
2020/12/16 12:20:50;;;;;;;46.37;29.33;;;;;;;;;;4964264;28;20358;-79
2020/12/16 12:23:16;;;;;;;47.37;28.70;;;;;;;;;;4956849;28;20203;-79
2020/12/16 12:25:42;;;;;;;61.17;33.87;;;;;;;;;;4950564;28;20179;-78
2020/12/16 12:28:09;;;;;;;55.63;31.17;;;;;;;;;;4946109;28;20292;-79
2020/12/16 12:30:36;;;;;;;55.47;32.20;;;;;;;;;;4953778;28;20272;-78
2020/12/16 12:33:03;;;;;;;57.40;32.63;;;;;;;;;;4957049;28;20187;-79
2020/12/16 12:35:29;;;;;;;59.50;34.10;;;;;;;;;;4955641;28;20210;-80
2020/12/16 12:37:55;;;;;;;70.00;39.70;;;;;;;;;;4962249;28;20206;-78
2020/12/16 12:40:22;;;;;;;74.47;40.60;;;;;;;;;;4949977;28;20244;-79
2020/12/16 12:42:48;;;;;;;72.33;40.80;;;;;;;;;;4968203;28;20644;-79
2020/12/16 12:45:14;;;;;;;75.87;40.60;;;;;;;;;;4959995;28;20210;-79
2020/12/16 12:47:40;;;;;;;73.33;40.33;;;;;;;;;;4975119;28;20182;-79
2020/12/16 12:50:07;;;;;;;57.40;33.20;;;;;;;;;;4978203;28;20196;-79
2020/12/16 12:52:33;;;;;;;69.93;37.13;;;;;;;;;;4962847;28;20580;-79
2020/12/16 12:54:59;;;;;;;65.27;36.40;;;;;;;;;;4967837;28;20194;-79
2020/12/16 12:57:25;;;;;;;59.33;33.73;;;;;;;;;;4958509;28;20203;-79
2020/12/16 12:59:52;;;;;;;58.37;33.73;;;;;;;;;;4957382;28;20207;-80
2020/12/16 13:02:18;;;;;;;56.17;33.20;;;;;;;;;;4957095;28;20180;-79
2020/12/16 13:04:44;;;;;;;54.13;31.90;;;;;;;;;;4971806;28;20194;-80
2020/12/16 13:07:14;;;;;;;56.80;33.30;;;;;;;;;;4973404;28;20206;-80
2020/12/16 13:09:40;;;;;;;57.67;34.47;;;;;;;;;;4958831;28;20239;-80
2020/12/16 13:12:07;;;;;;;54.87;33.73;;;;;;;;;;4958601;28;20187;-80
2020/12/16 13:14:33;;;;;;;56.00;33.80;;;;;;;;;;4958890;28;20188;-78
2020/12/16 13:16:59;;;;;;;53.03;33.70;;;;;;;;;;4958613;28;20192;-80
2020/12/16 13:19:25;;;;;;;65.47;37.40;;;;;;;;;;4958811;28;20218;-80
2020/12/16 13:21:52;;;;;;;61.77;36.27;;;;;;;;;;4971561;28;20219;-79
2020/12/16 13:24:19;;;;;;;54.93;34.57;;;;;;;;;;4978167;28;20189;-79
2020/12/16 13:26:47;;;;;;;53.90;34.40;;;;;;;;;;4976944;28;20184;-80
2020/12/16 13:29:13;;;;;;;57.37;34.37;;;;;;;;;;4977452;28;20221;-80
2020/12/16 13:31:39;;;;;;;55.77;34.57;;;;;;;;;;4977710;28;20266;-80
2020/12/16 13:34:07;;;;;;;58.77;34.67;;;;;;;;;;4978013;28;20570;-79
2020/12/16 13:36:33;;;;;;;54.63;34.03;;;;;;;;;;4961026;28;20530;-79
2020/12/16 13:39:01;;;;;;;55.23;32.30;;;;;;;;;;4962620;28;20263;-78
2020/12/16 13:41:27;;;;;;;50.43;31.83;;;;;;;;;;4977396;28;20203;-80
2020/12/16 13:43:54;;;;;;;44.33;30.60;;;;;;;;;;4949769;28;20192;-79
2020/12/16 13:46:20;;;;;;;59.70;33.67;;;;;;;;;;4955629;28;20188;-78
2020/12/16 13:48:46;;;;;;;58.30;34.10;;;;;;;;;;4951919;28;20219;-79
2020/12/16 13:51:12;;;;;;;47.27;30.87;;;;;;;;;;4951956;28;20187;-78
2020/12/16 13:53:38;;;;;;;47.23;29.30;;;;;;;;;;4954025;28;20212;-78
2020/12/16 13:56:04;;;;;;;42.73;28.60;;;;;;;;;;4946852;28;20655;-78
2020/12/16 13:58:30;;;;;;;45.93;29.63;;;;;;;;;;4960712;28;20211;-79
2020/12/16 14:00:59;;;;;;;52.73;29.23;;;;;;;;;;4959535;28;20202;-80
2020/12/16 14:03:25;;;;;;;50.77;29.77;;;;;;;;;;4952124;28;20191;-80
2020/12/16 14:05:51;;;;;;;43.63;28.03;;;;;;;;;;4950290;28;20204;-80
2020/12/16 14:08:17;;;;;;;48.43;30.07;;;;;;;;;;4951642;28;20202;-79
2020/12/16 14:10:43;;;;;;;66.43;28.77;;;;;;;;;;4947676;29;20678;-79
2020/12/16 14:13:09;;;;;;;88.53;30.00;;;;;;;;;;4955327;28;20191;-80
2020/12/16 14:15:35;;;;;;;110.43;31.23;;;;;;;;;;4955044;29;20272;-78
2020/12/16 14:18:01;;;;;;;126.60;31.57;;;;;;;;;;4953326;28;20216;-80